Time;durP1;ratioP1;P1;durP2;ratioP2;P2;SDS_P1;SDS_P2;PMS_P1;PMS_P2;Temp;Humidity;BMP_temperature;BMP_pressure;BME280_temperature;BME280_humidity;BME280_pressure;Samples;Min_cycle;Max_cycle;Signal;HPM_P1;HPM_P2
2021/10/15 00:01:34;;;;;;;88.80;62.27;;;12.00;99.90;;;;;;5054498;28;20161;-82
2021/10/15 00:03:59;;;;;;;88.27;60.23;;;11.90;99.90;;;;;;5055015;28;20237;-82
2021/10/15 00:06:26;;;;;;;86.77;58.00;;;11.80;99.90;;;;;;5056033;28;20169;-82
2021/10/15 00:08:51;;;;;;;87.63;58.95;;;11.80;99.90;;;;;;5056129;28;20188;-82
2021/10/15 00:11:18;;;;;;;82.47;46.50;;;11.70;99.90;;;;;;5054322;28;20548;-82
2021/10/15 00:13:43;;;;;;;88.60;57.78;;;11.60;99.90;;;;;;5055436;28;20548;-82
2021/10/15 00:16:09;;;;;;;86.70;53.80;;;11.50;99.90;;;;;;5055819;28;20157;-82
2021/10/15 00:18:35;;;;;;;86.80;57.60;;;11.50;99.90;;;;;;5056042;28;20721;-82
2021/10/15 00:21:00;;;;;;;81.17;41.43;;;11.40;99.90;;;;;;5053909;28;20536;-82
2021/10/15 00:23:26;;;;;;;83.13;46.20;;;11.30;99.90;;;;;;5056004;28;20172;-82
2021/10/15 00:25:52;;;;;;;87.97;45.30;;;11.20;99.90;;;;;;5053919;28;20183;-81
2021/10/15 00:28:17;;;;;;;81.67;44.27;;;11.20;99.90;;;;;;5055152;28;20215;-82
2021/10/15 00:30:43;;;;;;;88.73;43.50;;;11.10;99.90;;;;;;5055305;28;20160;-82
2021/10/15 00:33:09;;;;;;;80.37;38.17;;;11.10;99.90;;;;;;5055412;28;20184;-82
2021/10/15 00:35:34;;;;;;;84.10;44.27;;;11.00;99.90;;;;;;5055120;28;20157;-82
2021/10/15 00:38:00;;;;;;;81.97;40.23;;;11.00;99.90;;;;;;5053552;28;20189;-82
2021/10/15 00:40:25;;;;;;;82.43;43.43;;;10.90;99.90;;;;;;5055184;28;20560;-82
2021/10/15 00:42:51;;;;;;;84.77;46.00;;;10.90;99.90;;;;;;5054985;28;20180;-82
2021/10/15 00:45:17;;;;;;;84.00;46.57;;;10.80;99.90;;;;;;5055123;28;20705;-82
2021/10/15 00:47:43;;;;;;;85.13;44.90;;;10.80;99.90;;;;;;5055067;28;20317;-82
2021/10/15 00:50:09;;;;;;;84.43;46.73;;;10.70;99.90;;;;;;5055042;28;20643;-82
2021/10/15 00:52:36;;;;;;;89.95;59.97;;;10.70;99.90;;;;;;5055547;28;20230;-82
2021/10/15 00:55:02;;;;;;;89.63;58.63;;;10.60;99.90;;;;;;5055135;28;20184;-82
2021/10/15 00:57:27;;;;;;;91.57;61.00;;;10.60;99.90;;;;;;5054442;28;20193;-82
2021/10/15 00:59:54;;;;;;;89.17;55.80;;;10.60;99.90;;;;;;5058497;28;20179;-82
2021/10/15 01:02:19;;;;;;;85.70;49.05;;;10.50;99.90;;;;;;5058812;28;20165;-82
2021/10/15 01:04:45;;;;;;;88.07;55.50;;;10.50;99.90;;;;;;5059239;28;20219;-82
2021/10/15 01:07:11;;;;;;;84.55;47.17;;;10.50;99.90;;;;;;5057526;28;20179;-82
2021/10/15 01:09:37;;;;;;;84.37;42.23;;;10.60;99.90;;;;;;5058822;28;20317;-82
2021/10/15 01:12:05;;;;;;;85.97;52.08;;;10.50;99.90;;;;;;5057493;28;20169;-82
2021/10/15 01:14:31;;;;;;;87.57;51.15;;;10.30;99.90;;;;;;5058441;28;20192;-81
2021/10/15 01:17:02;;;;;;;86.80;53.45;;;10.30;99.90;;;;;;5058455;28;20656;-81
2021/10/15 01:19:28;;;;;;;88.30;49.05;;;10.30;99.90;;;;;;5057826;28;20741;-82
2021/10/15 01:21:53;;;;;;;87.87;55.53;;;10.30;99.90;;;;;;5059039;28;20192;-82
2021/10/15 01:24:19;;;;;;;90.03;58.10;;;10.20;99.90;;;;;;5058286;28;20173;-82
2021/10/15 01:26:45;;;;;;;97.63;83.10;;;10.10;99.90;;;;;;5058460;28;20201;-82
2021/10/15 01:29:11;;;;;;;98.73;83.67;;;10.00;99.90;;;;;;5058502;28;20196;-82
2021/10/15 01:31:38;;;;;;;104.70;87.90;;;10.00;99.90;;;;;;5056855;28;20172;-82
2021/10/15 01:34:03;;;;;;;87.95;57.38;;;10.00;99.90;;;;;;5058116;28;20546;-82
2021/10/15 01:36:29;;;;;;;86.20;52.53;;;10.00;99.90;;;;;;5057210;28;20171;-82
2021/10/15 01:38:55;;;;;;;86.73;53.87;;;10.00;99.90;;;;;;5058278;28;20195;-82
2021/10/15 01:41:21;;;;;;;94.40;60.23;;;10.00;99.90;;;;;;5058000;28;20170;-82
2021/10/15 01:43:47;;;;;;;87.55;55.00;;;10.00;99.90;;;;;;5056769;28;20168;-81
2021/10/15 01:46:13;;;;;;;91.77;62.27;;;10.00;99.90;;;;;;5057012;28;20180;-82
2021/10/15 01:48:39;;;;;;;110.47;98.23;;;10.00;99.90;;;;;;5058472;28;20490;-82
2021/10/15 01:51:04;;;;;;;94.60;66.57;;;9.90;99.90;;;;;;5056730;28;20168;-82
2021/10/15 01:53:31;;;;;;;112.17;98.70;;;9.90;99.90;;;;;;5058352;28;20189;-82
2021/10/15 01:55:56;;;;;;;103.07;91.47;;;9.80;99.90;;;;;;5058535;28;20403;-82
2021/10/15 01:58:22;;;;;;;104.83;91.43;;;9.90;99.90;;;;;;5056820;28;20548;-82
2021/10/15 02:00:48;;;;;;;94.17;73.00;;;9.80;99.90;;;;;;5058237;28;20169;-82
2021/10/15 02:03:14;;;;;;;122.45;110.03;;;9.90;99.90;;;;;;5058280;28;20168;-82
2021/10/15 02:05:40;;;;;;;130.57;118.38;;;9.80;99.90;;;;;;5058438;28;20160;-82
2021/10/15 02:08:06;;;;;;;145.17;132.30;;;9.80;99.90;;;;;;5057901;28;20247;-82
2021/10/15 02:10:32;;;;;;;179.37;164.90;;;9.70;99.90;;;;;;5056832;28;20172;-82
2021/10/15 02:12:58;;;;;;;162.63;149.30;;;9.60;99.90;;;;;;5057929;28;20407;-82
2021/10/15 02:15:24;;;;;;;105.90;89.43;;;9.60;99.90;;;;;;5057914;28;20165;-82
2021/10/15 02:17:50;;;;;;;109.57;98.20;;;9.70;99.90;;;;;;5058272;28;20196;-82
2021/10/15 02:20:17;;;;;;;117.90;105.97;;;9.60;99.90;;;;;;5056463;28;20173;-82
2021/10/15 02:22:46;;;;;;;105.07;93.63;;;9.60;99.90;;;;;;5056829;28;20247;-82
2021/10/15 02:25:14;;;;;;;109.72;91.55;;;9.60;99.90;;;;;;5057492;28;20180;-82
2021/10/15 02:27:43;;;;;;;145.30;132.63;;;9.60;99.90;;;;;;5056065;28;20305;-82
2021/10/15 02:30:11;;;;;;;139.20;126.70;;;9.60;99.90;;;;;;5057177;28;20192;-82
2021/10/15 02:32:37;;;;;;;161.23;147.50;;;9.50;99.90;;;;;;5057301;28;20165;-82
2021/10/15 02:35:04;;;;;;;114.30;102.70;;;9.50;99.90;;;;;;5055668;28;20242;-82
2021/10/15 02:37:29;;;;;;;143.68;131.02;;;9.60;99.90;;;;;;5056894;28;20472;-82
2021/10/15 02:39:55;;;;;;;128.77;116.70;;;9.50;99.90;;;;;;5057573;28;20628;-82
2021/10/15 02:42:21;;;;;;;151.67;137.90;;;9.60;99.90;;;;;;5057120;28;20212;-81
2021/10/15 02:44:47;;;;;;;144.67;131.77;;;9.60;99.90;;;;;;5057049;28;20172;-82
2021/10/15 02:47:12;;;;;;;160.90;147.47;;;9.50;99.90;;;;;;5057089;28;20552;-82
2021/10/15 02:49:38;;;;;;;143.73;131.23;;;9.50;99.90;;;;;;5056863;28;20172;-82
2021/10/15 02:52:04;;;;;;;160.53;147.33;;;9.60;99.90;;;;;;5056978;28;20179;-82
2021/10/15 02:54:30;;;;;;;152.40;138.80;;;9.60;99.90;;;;;;5056844;28;20193;-82
2021/10/15 02:56:55;;;;;;;143.83;131.17;;;9.60;99.90;;;;;;5055205;28;20264;-82
2021/10/15 02:59:21;;;;;;;156.07;143.03;;;9.50;99.90;;;;;;5055732;28;20200;-82
2021/10/15 03:01:47;;;;;;;159.83;146.60;;;9.60;99.90;;;;;;5056245;28;20268;-82
2021/10/15 03:04:12;;;;;;;153.40;140.33;;;9.60;99.90;;;;;;5055723;28;20168;-82
2021/10/15 03:06:38;;;;;;;281.67;263.00;;;9.70;99.90;;;;;;5056420;28;20310;-82
2021/10/15 03:09:04;;;;;;;317.63;297.47;;;9.70;99.90;;;;;;5056308;28;20192;-82
2021/10/15 03:11:30;;;;;;;269.70;251.40;;;9.70;99.90;;;;;;5056787;28;20568;-82
2021/10/15 03:13:57;;;;;;;300.93;281.23;;;9.90;99.90;;;;;;5055163;28;20275;-82
2021/10/15 03:16:22;;;;;;;308.30;288.88;;;9.90;99.90;;;;;;5054822;28;20176;-81
2021/10/15 03:18:48;;;;;;;309.73;290.30;;;10.00;99.90;;;;;;5056270;28;20181;-82
2021/10/15 03:21:14;;;;;;;269.97;251.07;;;10.10;99.90;;;;;;5054354;28;20171;-81
2021/10/15 03:23:39;;;;;;;232.73;216.63;;;10.10;99.90;;;;;;5055832;28;20218;-82
2021/10/15 03:26:05;;;;;;;233.43;217.27;;;10.10;99.90;;;;;;5056184;28;20555;-82
2021/10/15 03:28:31;;;;;;;225.83;210.17;;;10.20;99.90;;;;;;5055659;28;20196;-82
2021/10/15 03:30:57;;;;;;;185.87;171.33;;;10.20;99.90;;;;;;5056272;28;20501;-81
2021/10/15 03:33:22;;;;;;;219.03;202.87;;;10.20;99.90;;;;;;5055663;28;20435;-82
2021/10/15 03:35:48;;;;;;;185.37;170.87;;;10.30;99.90;;;;;;5055684;28;20209;-80
2021/10/15 03:38:14;;;;;;;178.63;163.83;;;10.30;99.90;;;;;;5054567;28;20227;-82
2021/10/15 03:40:39;;;;;;;165.27;151.23;;;10.40;99.90;;;;;;5055858;28;20172;-82
2021/10/15 03:43:05;;;;;;;160.53;147.00;;;10.40;99.90;;;;;;5055937;28;20164;-82
2021/10/15 03:45:31;;;;;;;195.10;180.23;;;10.40;99.90;;;;;;5056315;28;20528;-82
2021/10/15 03:47:56;;;;;;;157.63;144.40;;;10.50;99.90;;;;;;5055850;28;20187;-82
2021/10/15 03:50:22;;;;;;;168.13;154.47;;;10.50;99.90;;;;;;5055587;28;20168;-82
2021/10/15 03:52:48;;;;;;;179.43;165.30;;;10.50;99.90;;;;;;5055896;28;20184;-82
2021/10/15 03:55:14;;;;;;;170.10;156.10;;;10.50;99.90;;;;;;5055933;28;20698;-82
2021/10/15 03:57:41;;;;;;;188.20;174.20;;;10.40;99.90;;;;;;5055803;28;20185;-82
2021/10/15 04:00:10;;;;;;;179.68;165.23;;;10.40;99.90;;;;;;5055700;28;20424;-82
2021/10/15 04:02:41;;;;;;;180.57;166.60;;;10.30;99.90;;;;;;5054425;28;20170;-82
2021/10/15 04:05:08;;;;;;;161.35;148.15;;;10.40;99.90;;;;;;5056181;28;20168;-82
2021/10/15 04:07:34;;;;;;;151.50;138.52;;;10.40;99.90;;;;;;5055211;28;20587;-82
2021/10/15 04:10:00;;;;;;;147.83;135.10;;;10.40;99.90;;;;;;5055632;28;20199;-82
2021/10/15 04:12:25;;;;;;;155.80;142.47;;;10.40;99.90;;;;;;5055521;28;20179;-82
2021/10/15 04:14:51;;;;;;;161.43;148.20;;;10.40;99.90;;;;;;5055465;28;20189;-82
2021/10/15 04:17:17;;;;;;;168.37;154.83;;;10.40;99.90;;;;;;5054155;28;20208;-82
2021/10/15 04:19:42;;;;;;;168.40;154.70;;;10.40;99.90;;;;;;5055109;28;20528;-82
2021/10/15 04:22:10;;;;;;;195.73;180.80;;;10.40;99.90;;;;;;5055549;28;20203;-82
2021/10/15 04:24:37;;;;;;;170.50;156.48;;;10.40;99.90;;;;;;5054064;28;20179;-82
2021/10/15 04:27:03;;;;;;;162.65;149.20;;;10.40;99.90;;;;;;5055115;28;20181;-82
2021/10/15 04:29:29;;;;;;;171.80;158.30;;;10.40;99.90;;;;;;5054826;28;20256;-82
2021/10/15 04:31:55;;;;;;;185.43;171.17;;;10.40;99.90;;;;;;5055056;28;20410;-82
2021/10/15 04:34:20;;;;;;;176.50;162.60;;;10.40;99.90;;;;;;5058152;28;20224;-81
2021/10/15 04:36:46;;;;;;;176.37;162.10;;;10.50;99.90;;;;;;5058918;28;20403;-82
2021/10/15 04:39:12;;;;;;;181.13;167.03;;;10.50;99.90;;;;;;5059157;28;20179;-82
2021/10/15 04:41:37;;;;;;;168.73;155.17;;;10.50;99.90;;;;;;5059533;28;20172;-82
2021/10/15 04:44:03;;;;;;;199.67;185.13;;;10.50;99.90;;;;;;5058870;28;20164;-82
2021/10/15 04:46:29;;;;;;;176.57;162.47;;;10.50;99.90;;;;;;5057688;28;20164;-82
2021/10/15 04:48:54;;;;;;;124.20;112.37;;;10.50;99.90;;;;;;5059058;28;20528;-82
2021/10/15 04:51:20;;;;;;;160.30;147.03;;;10.60;99.90;;;;;;5059145;28;20168;-82
2021/10/15 04:53:46;;;;;;;161.90;148.67;;;10.60;99.90;;;;;;5058665;28;20180;-82
2021/10/15 04:56:11;;;;;;;175.60;161.07;;;10.70;99.90;;;;;;5058867;28;20664;-82
2021/10/15 04:58:37;;;;;;;140.30;127.63;;;10.70;99.90;;;;;;5057491;28;20615;-82
2021/10/15 05:01:02;;;;;;;153.33;140.03;;;10.70;99.90;;;;;;5058634;28;20244;-82
2021/10/15 05:03:28;;;;;;;133.87;121.60;;;10.70;99.90;;;;;;5058748;28;20257;-82
2021/10/15 05:05:54;;;;;;;132.50;119.70;;;10.80;99.90;;;;;;5058685;28;20200;-82
2021/10/15 05:08:21;;;;;;;100.50;82.20;;;10.80;99.90;;;;;;5058525;28;20183;-82
2021/10/15 05:10:47;;;;;;;125.20;112.55;;;10.90;99.90;;;;;;5057413;28;20953;-82
2021/10/15 05:13:14;;;;;;;163.43;149.20;;;10.80;99.90;;;;;;5058874;28;20182;-82
2021/10/15 05:15:44;;;;;;;143.70;130.95;;;10.80;99.90;;;;;;5058337;28;20413;-82
2021/10/15 05:18:14;;;;;;;161.98;148.38;;;10.80;99.90;;;;;;5057396;28;20180;-82
2021/10/15 05:20:41;;;;;;;119.50;107.43;;;10.70;99.90;;;;;;5058440;28;20161;-82
2021/10/15 05:23:07;;;;;;;134.85;121.95;;;10.80;99.90;;;;;;5058823;28;20161;-82
2021/10/15 05:25:34;;;;;;;156.75;142.82;;;10.90;99.90;;;;;;5057782;28;20638;-82
2021/10/15 05:27:59;;;;;;;142.27;129.35;;;10.80;99.90;;;;;;5058403;28;20254;-82
2021/10/15 05:30:26;;;;;;;133.87;121.40;;;10.80;99.90;;;;;;5056739;28;20176;-81
2021/10/15 05:32:55;;;;;;;112.20;100.35;;;10.80;99.90;;;;;;5057347;28;20191;-82
2021/10/15 05:35:24;;;;;;;113.00;100.97;;;10.90;99.90;;;;;;5057015;28;20180;-82
2021/10/15 05:37:50;;;;;;;170.30;156.52;;;10.90;99.90;;;;;;5058244;28;20181;-82
2021/10/15 05:40:18;;;;;;;132.33;119.50;;;10.80;99.90;;;;;;5056697;28;20211;-82
2021/10/15 05:42:49;;;;;;;161.75;147.95;;;10.80;99.90;;;;;;5058058;28;20172;-82
2021/10/15 05:45:16;;;;;;;136.60;124.07;;;10.80;99.90;;;;;;5056479;28;20176;-82
2021/10/15 05:47:41;;;;;;;133.45;120.95;;;10.80;99.90;;;;;;5058050;28;20610;-82
2021/10/15 05:50:09;;;;;;;139.83;127.27;;;10.80;99.90;;;;;;5058160;28;20172;-82
2021/10/15 05:52:41;;;;;;;117.75;105.63;;;10.90;99.90;;;;;;5058837;28;20656;-82
2021/10/15 06:00:27;;;;;;;139.52;126.38;;;11.00;99.90;;;;;;5058341;28;20152;-82
2021/10/15 06:02:53;;;;;;;104.97;88.13;;;11.00;99.90;;;;;;5058011;28;20587;-82
2021/10/15 06:16:19;;;;;;;102.47;73.47;;;11.00;99.90;;;;;;5057870;28;20199;-82
2021/10/15 06:18:52;;;;;;;95.82;68.53;;;11.10;99.90;;;;;;5057703;28;20185;-82
2021/10/15 06:23:46;;;;;;;91.13;55.63;;;11.20;99.90;;;;;;4998831;28;20209;-83
2021/10/15 06:26:11;;;;;;;92.00;58.63;;;11.20;99.90;;;;;;4998877;28;20526;-82
2021/10/15 06:28:37;;;;;;;95.80;56.37;;;11.20;99.90;;;;;;4998876;28;20186;-83
2021/10/15 06:31:03;;;;;;;90.87;53.43;;;11.30;99.90;;;;;;4998421;28;20170;-83
2021/10/15 06:33:28;;;;;;;93.97;59.93;;;11.30;99.90;;;;;;4998688;28;20559;-82
2021/10/15 06:35:54;;;;;;;94.53;63.67;;;11.30;99.90;;;;;;4997583;28;20171;-82
2021/10/15 06:38:20;;;;;;;103.67;92.33;;;11.30;99.90;;;;;;4998852;28;20553;-83
2021/10/15 06:40:46;;;;;;;121.13;108.43;;;11.30;99.90;;;;;;4999492;28;20598;-82
2021/10/15 06:43:12;;;;;;;104.93;89.43;;;11.30;99.90;;;;;;4999820;28;20174;-82
2021/10/15 06:45:37;;;;;;;99.87;82.80;;;11.30;99.90;;;;;;5000942;28;20163;-82
2021/10/15 06:48:03;;;;;;;94.67;68.47;;;11.40;99.90;;;;;;4997039;28;20186;-82
2021/10/15 06:50:30;;;;;;;101.72;84.18;;;11.40;99.90;;;;;;4998968;28;20151;-83
2021/10/15 06:52:59;;;;;;;111.00;96.68;;;11.40;99.90;;;;;;4999570;28;20237;-82
2021/10/15 06:55:27;;;;;;;103.00;82.13;;;11.40;99.90;;;;;;4998038;28;20172;-82
2021/10/15 06:57:53;;;;;;;93.88;63.05;;;11.50;99.90;;;;;;5001293;28;20182;-82
2021/10/15 07:00:19;;;;;;;90.43;62.10;;;11.50;99.90;;;;;;5001573;28;20533;-83
2021/10/15 07:02:45;;;;;;;99.38;82.93;;;11.60;99.90;;;;;;5001101;28;20159;-82
2021/10/15 07:05:14;;;;;;;111.40;99.75;;;11.60;99.90;;;;;;4999524;28;20593;-82
2021/10/15 07:07:41;;;;;;;120.70;108.40;;;11.60;99.90;;;;;;5001413;28;20670;-83
2021/10/15 07:10:08;;;;;;;110.63;96.20;;;11.60;99.90;;;;;;4999848;28;20176;-82
2021/10/15 07:12:41;;;;;;;97.32;77.05;;;11.60;99.90;;;;;;4999963;28;20255;-82
2021/10/15 07:15:09;;;;;;;103.30;83.88;;;11.70;99.90;;;;;;5000977;28;20198;-82
2021/10/15 07:17:35;;;;;;;89.65;58.72;;;11.70;99.90;;;;;;4997836;28;20187;-83
2021/10/15 07:20:02;;;;;;;93.63;58.53;;;11.80;99.90;;;;;;4998800;28;20191;-82
2021/10/15 07:22:27;;;;;;;87.78;49.42;;;11.80;99.90;;;;;;4998767;28;20425;-82
2021/10/15 07:24:53;;;;;;;89.60;53.80;;;11.90;99.90;;;;;;4999595;28;20170;-82
2021/10/15 07:27:19;;;;;;;85.83;48.73;;;11.90;99.90;;;;;;4998955;28;20206;-82
2021/10/15 07:29:44;;;;;;;83.30;40.87;;;11.90;99.90;;;;;;5000516;28;20166;-82
2021/10/15 07:32:10;;;;;;;81.50;38.63;;;12.00;99.90;;;;;;4998942;28;20261;-82
2021/10/15 07:34:36;;;;;;;83.87;44.10;;;12.00;99.90;;;;;;5002815;28;20205;-83
2021/10/15 07:37:01;;;;;;;83.67;41.40;;;12.00;99.90;;;;;;4999499;28;20173;-83
2021/10/15 07:39:27;;;;;;;86.90;47.13;;;12.20;99.90;;;;;;5000531;28;20562;-82
2021/10/15 07:41:53;;;;;;;82.60;41.30;;;12.20;99.90;;;;;;5000288;28;20167;-83
2021/10/15 07:44:18;;;;;;;87.17;51.60;;;12.20;99.90;;;;;;5001437;28;20221;-83
2021/10/15 07:46:44;;;;;;;87.77;53.40;;;12.30;99.90;;;;;;4999144;28;20166;-83
2021/10/15 07:49:10;;;;;;;87.57;55.23;;;12.30;99.90;;;;;;5002901;28;20225;-84
2021/10/15 07:51:36;;;;;;;90.63;59.20;;;12.30;99.90;;;;;;5003461;28;20409;-83
2021/10/15 07:54:02;;;;;;;86.85;49.10;;;12.30;99.90;;;;;;5003219;28;20198;-83
2021/10/15 07:56:33;;;;;;;87.43;48.13;;;12.40;99.90;;;;;;5002814;28;20174;-83
2021/10/15 07:59:05;;;;;;;95.97;67.43;;;12.40;99.90;;;;;;4999555;28;20557;-83
2021/10/15 08:01:30;;;;;;;124.63;111.43;;;12.40;99.90;;;;;;5001791;28;20402;-82
2021/10/15 08:03:56;;;;;;;107.43;95.93;;;12.40;99.90;;;;;;5003992;28;20197;-83
2021/10/15 08:06:22;;;;;;;101.33;74.53;;;12.50;99.90;;;;;;5003137;28;20170;-83
2021/10/15 08:08:51;;;;;;;95.27;68.70;;;12.50;99.90;;;;;;5002088;28;20186;-82
2021/10/15 08:11:17;;;;;;;99.07;75.47;;;12.60;99.90;;;;;;5003362;28;20413;-83
2021/10/15 08:13:45;;;;;;;94.32;65.57;;;12.70;99.90;;;;;;5003057;28;20198;-83
2021/10/15 08:16:11;;;;;;;91.07;62.55;;;12.80;99.90;;;;;;5003363;28;20170;-83
2021/10/15 08:18:40;;;;;;;106.60;89.87;;;12.90;99.90;;;;;;5002249;28;20186;-83
2021/10/15 08:21:06;;;;;;;92.50;61.80;;;12.90;99.90;;;;;;5003001;28;20900;-82
2021/10/15 08:23:31;;;;;;;84.10;45.90;;;13.10;99.90;;;;;;5003294;28;20182;-83
2021/10/15 08:25:58;;;;;;;81.70;41.17;;;13.20;99.90;;;;;;5002843;28;20177;-83
2021/10/15 08:28:25;;;;;;;83.60;43.87;;;13.30;99.90;;;;;;5002959;28;20566;-83
2021/10/15 08:30:51;;;;;;;81.65;39.38;;;13.40;99.90;;;;;;5002364;28;20785;-83
2021/10/15 08:33:17;;;;;;;83.97;43.60;;;13.50;99.90;;;;;;5002075;28;20174;-83
2021/10/15 08:35:43;;;;;;;93.53;45.10;;;13.40;99.90;;;;;;5002733;28;20562;-83
2021/10/15 08:38:08;;;;;;;81.70;39.33;;;13.50;99.90;;;;;;5002288;28;20574;-83
2021/10/15 08:40:34;;;;;;;84.13;44.47;;;13.50;99.90;;;;;;5002686;28;20231;-83
2021/10/15 08:42:59;;;;;;;85.57;43.60;;;13.50;99.90;;;;;;4998829;28;20174;-83
2021/10/15 08:45:28;;;;;;;83.77;40.30;;;13.50;99.90;;;;;;5000726;28;20649;-82
2021/10/15 08:47:58;;;;;;;85.30;43.53;;;13.50;99.90;;;;;;5001824;28;20278;-83
2021/10/15 08:50:24;;;;;;;85.67;40.13;;;13.50;99.90;;;;;;5001411;28;20570;-83
2021/10/15 08:52:50;;;;;;;83.80;45.63;;;13.50;99.90;;;;;;4998583;28;20429;-83
2021/10/15 08:55:17;;;;;;;87.00;39.20;;;13.40;99.90;;;;;;4998401;28;20452;-83
2021/10/15 08:57:55;;;;;;;81.37;40.97;;;13.50;99.90;;;;;;4997680;28;20433;-83
2021/10/15 09:00:33;;;;;;;83.70;40.88;;;13.60;99.90;;;;;;5001271;28;20405;-83
2021/10/15 09:03:30;;;;;;;86.77;41.73;;;13.70;99.90;;;;;;4997377;28;20181;-82
2021/10/15 09:06:05;;;;;;;83.70;39.67;;;13.70;99.90;;;;;;4989186;28;20418;-83
2021/10/15 09:08:53;;;;;;;86.47;38.30;;;13.80;99.90;;;;;;5001404;28;20418;-83
2021/10/15 09:11:37;;;;;;;85.07;41.10;;;13.70;99.90;;;;;;5000490;28;20486;-82
2021/10/15 09:14:08;;;;;;;83.70;39.23;;;13.70;99.90;;;;;;5000146;28;20636;-83
2021/10/15 09:17:06;;;;;;;82.97;42.87;;;13.70;99.90;;;;;;4999484;28;20410;-83
2021/10/15 09:19:42;;;;;;;86.50;47.60;;;13.70;99.90;;;;;;4998012;28;20490;-82
2021/10/15 09:22:12;;;;;;;84.70;41.07;;;13.80;99.90;;;;;;5001446;28;20443;-83
2021/10/15 09:24:52;;;;;;;90.70;39.17;;;13.90;99.90;;;;;;5004448;28;20386;-83
2021/10/15 09:27:21;;;;;;;88.93;45.10;;;13.90;99.90;;;;;;5003570;28;20777;-83
2021/10/15 09:29:58;;;;;;;94.93;62.13;;;14.00;99.90;;;;;;5004695;28;20428;-83
2021/10/15 09:32:26;;;;;;;89.00;44.00;;;14.00;99.90;;;;;;5002992;28;20397;-83
2021/10/15 09:34:52;;;;;;;85.97;45.07;;;14.00;99.90;;;;;;5001110;28;20972;-83
2021/10/15 09:37:21;;;;;;;84.50;42.83;;;14.10;99.90;;;;;;5001633;28;20798;-83
2021/10/15 09:39:47;;;;;;;83.68;38.42;;;14.10;99.90;;;;;;5000917;28;20397;-83
2021/10/15 09:42:36;;;;;;;83.90;38.90;;;14.20;99.90;;;;;;5000806;28;20573;-83
2021/10/15 09:45:14;;;;;;;90.67;49.43;;;14.20;99.90;;;;;;5001466;28;20452;-83
2021/10/15 09:47:40;;;;;;;86.97;49.23;;;14.30;99.90;;;;;;5000405;28;20516;-83
2021/10/15 09:50:08;;;;;;;86.87;48.60;;;14.20;99.90;;;;;;5002670;28;20413;-82
2021/10/15 09:52:38;;;;;;;88.50;56.37;;;14.10;99.90;;;;;;5001659;28;20409;-82
2021/10/15 09:55:09;;;;;;;82.30;41.77;;;14.10;99.90;;;;;;4998569;28;20972;-82
2021/10/15 09:57:40;;;;;;;83.07;37.77;;;14.00;99.90;;;;;;5001378;28;20504;-81
2021/10/15 10:00:13;;;;;;;83.50;40.50;;;14.00;99.90;;;;;;4999423;28;20379;-81
2021/10/15 10:02:40;;;;;;;88.43;48.83;;;13.90;99.90;;;;;;4997215;28;20390;-78
2021/10/15 10:05:13;;;;;;;126.83;114.07;;;13.90;99.90;;;;;;4996443;28;20416;-78
2021/10/15 10:07:45;;;;;;;157.87;143.60;;;13.90;99.90;;;;;;4996270;28;20434;-78
2021/10/15 10:10:22;;;;;;;264.37;246.80;;;13.80;99.90;;;;;;4994555;28;20413;-78
2021/10/15 10:12:49;;;;;;;255.33;238.17;;;13.80;99.90;;;;;;4997134;28;20745;-78
2021/10/15 10:15:21;;;;;;;272.20;253.40;;;13.70;99.90;;;;;;4996123;28;20450;-78
2021/10/15 10:18:17;;;;;;;280.43;262.67;;;13.60;99.90;;;;;;4997317;28;20418;-79
2021/10/15 10:21:24;;;;;;;308.07;288.83;;;13.60;99.90;;;;;;4997044;28;20386;-82
2021/10/15 10:24:15;;;;;;;303.67;284.73;;;13.50;99.90;;;;;;4995430;28;20445;-81
2021/10/15 10:26:56;;;;;;;336.47;316.53;;;13.40;99.90;;;;;;4995476;28;20516;-81
2021/10/15 10:29:23;;;;;;;399.47;377.27;;;13.30;99.90;;;;;;4996682;28;20398;-81
2021/10/15 10:31:51;;;;;;;391.43;369.83;;;13.20;99.90;;;;;;4995900;28;20406;-82
2021/10/15 10:34:27;;;;;;;409.63;387.50;;;13.30;99.90;;;;;;4996435;28;20453;-83
2021/10/15 10:37:13;;;;;;;361.37;340.60;;;13.30;99.90;;;;;;4996499;28;20408;-83
2021/10/15 10:39:39;;;;;;;362.03;341.73;;;13.40;99.90;;;;;;4999202;28;20390;-84
2021/10/15 10:42:10;;;;;;;373.20;352.20;;;13.50;99.90;;;;;;5000844;28;20864;-84
2021/10/15 10:44:40;;;;;;;359.07;338.27;;;13.60;99.90;;;;;;4999167;28;20406;-83
2021/10/15 10:47:15;;;;;;;340.13;320.07;;;13.60;99.90;;;;;;4999940;28;20467;-83
2021/10/15 10:50:06;;;;;;;358.30;337.97;;;13.70;99.90;;;;;;4999737;28;20455;-83
2021/10/15 10:52:43;;;;;;;377.83;356.30;;;13.70;99.90;;;;;;5000643;28;20789;-84
2021/10/15 10:55:57;;;;;;;;;;;;;;;;;;;;;
2021/10/15 10:58:36;;;;;;;366.13;344.93;;;13.80;99.90;;;;;;5002162;28;20536;-83
2021/10/15 11:01:25;;;;;;;369.47;348.80;;;13.80;99.90;;;;;;5001008;28;20393;-84
2021/10/15 11:04:00;;;;;;;378.53;357.17;;;13.90;99.90;;;;;;4999982;28;20410;-83
2021/10/15 11:07:15;;;;;;;403.67;381.57;;;13.90;99.90;;;;;;4996567;28;20501;-83
2021/10/15 11:10:06;;;;;;;373.90;352.93;;;14.00;99.90;;;;;;4924117;29;20423;-83
2021/10/15 11:12:43;;;;;;;400.47;378.47;;;14.10;99.90;;;;;;4922576;29;20423;-83
2021/10/15 11:15:14;;;;;;;386.30;364.47;;;14.10;99.90;;;;;;4994234;28;20532;-83
2021/10/15 11:18:07;;;;;;;389.63;367.53;;;14.10;99.90;;;;;;4999098;28;20422;-83
2021/10/15 11:20:36;;;;;;;422.17;398.70;;;14.10;99.90;;;;;;4997636;28;20774;-82
2021/10/15 11:23:10;;;;;;;406.27;383.90;;;14.10;99.90;;;;;;4997415;28;20979;-82
2021/10/15 11:25:41;;;;;;;339.47;319.87;;;14.20;99.90;;;;;;4997751;28;20797;-82
2021/10/15 11:28:19;;;;;;;394.43;372.17;;;14.20;99.90;;;;;;4998476;28;20456;-82
2021/10/15 11:30:47;;;;;;;368.10;347.30;;;14.10;99.90;;;;;;4980628;28;20417;-82
2021/10/15 11:33:21;;;;;;;376.80;355.53;;;14.10;99.90;;;;;;4997606;28;20473;-82
2021/10/15 11:35:51;;;;;;;339.97;320.07;;;14.00;99.90;;;;;;4998771;28;20711;-82
2021/10/15 11:38:29;;;;;;;300.27;282.07;;;14.10;99.90;;;;;;4998565;28;20425;-82
2021/10/15 11:40:56;;;;;;;353.17;332.87;;;14.10;99.90;;;;;;5002037;28;20389;-82
2021/10/15 11:43:33;;;;;;;321.00;301.43;;;14.00;99.90;;;;;;5001604;28;20405;-82
2021/10/15 11:46:51;;;;;;;363.40;343.00;;;13.90;99.90;;;;;;4998162;28;20751;-82
2021/10/15 11:49:33;;;;;;;328.53;309.40;;;13.80;99.90;;;;;;5001307;28;20438;-83
2021/10/15 11:51:59;;;;;;;288.47;271.27;;;13.50;99.90;;;;;;5003012;28;20393;-82
2021/10/15 11:54:27;;;;;;;290.03;272.63;;;13.40;99.90;;;;;;5004839;28;20445;-83
2021/10/15 11:56:53;;;;;;;278.33;261.17;;;13.30;99.90;;;;;;5002940;28;20225;-82
2021/10/15 11:59:25;;;;;;;255.13;238.77;;;13.30;99.90;;;;;;5000518;28;20483;-82
2021/10/15 12:01:51;;;;;;;235.77;219.67;;;13.30;99.90;;;;;;5000322;28;20170;-82
2021/10/15 12:04:17;;;;;;;213.17;198.37;;;13.30;99.90;;;;;;5000167;28;20405;-82
2021/10/15 12:06:45;;;;;;;261.77;244.87;;;13.30;99.90;;;;;;4999710;28;20469;-82
2021/10/15 12:09:10;;;;;;;241.70;226.03;;;13.40;99.90;;;;;;4999395;28;20591;-82
2021/10/15 12:11:42;;;;;;;205.80;190.57;;;13.40;99.90;;;;;;5001667;28;20448;-81
2021/10/15 12:14:16;;;;;;;255.57;239.47;;;13.40;99.90;;;;;;5001536;28;20187;-82
2021/10/15 12:16:46;;;;;;;272.00;254.63;;;13.40;99.90;;;;;;5001299;28;20410;-82
2021/10/15 12:19:28;;;;;;;263.20;246.70;;;13.50;99.90;;;;;;5005373;28;20509;-82
2021/10/15 12:22:22;;;;;;;254.83;238.33;;;13.60;99.90;;;;;;5044364;22;20437;-83
2021/10/15 12:24:57;;;;;;;259.47;242.90;;;13.80;99.90;;;;;;5033687;28;20423;-83
2021/10/15 12:27:38;;;;;;;267.77;250.93;;;13.80;99.90;;;;;;5039590;28;20422;-83
2021/10/15 12:30:27;;;;;;;270.37;252.77;;;13.90;99.90;;;;;;5053750;28;20403;-82
2021/10/15 12:33:16;;;;;;;297.40;279.30;;;14.00;99.90;;;;;;5054829;28;20408;-84
2021/10/15 12:35:45;;;;;;;299.73;281.97;;;14.10;99.90;;;;;;5055428;28;20384;-83
2021/10/15 12:38:29;;;;;;;336.43;316.93;;;14.10;99.90;;;;;;5055371;28;20411;-83
2021/10/15 12:41:13;;;;;;;270.63;253.37;;;14.20;99.90;;;;;;5055005;28;20449;-83
2021/10/15 12:43:52;;;;;;;199.73;184.87;;;14.10;99.90;;;;;;5053305;28;20771;-83
2021/10/15 12:46:33;;;;;;;144.23;131.17;;;14.10;99.90;;;;;;5054513;28;20860;-83
2021/10/15 12:49:19;;;;;;;229.90;213.50;;;14.10;99.90;;;;;;5055319;28;20473;-83